sensor_id;sensor_type;location;lat;lon;timestamp;pressure;altitude;pressure_sealevel;temperature;humidity
15998;BME280;8103;51.340;12.326;2023-02-15T00:05:33;101763.09;;;4.39;91.26
15998;BME280;8103;51.340;12.326;2023-02-15T00:08:02;101758.25;;;4.43;90.67
15998;BME280;8103;51.340;12.326;2023-02-15T00:10:29;101757.13;;;4.37;91.19
15998;BME280;8103;51.340;12.326;2023-02-15T00:13:00;101748.72;;;4.34;91.28
15998;BME280;8103;51.340;12.326;2023-02-15T00:15:26;101751.72;;;4.31;91.52
15998;BME280;8103;51.340;12.326;2023-02-15T00:17:54;101756.34;;;4.29;91.84
15998;BME280;8103;51.340;12.326;2023-02-15T00:20:20;101744.44;;;4.25;91.40
15998;BME280;8103;51.340;12.326;2023-02-15T00:22:48;101746.75;;;4.20;92.01
15998;BME280;8103;51.340;12.326;2023-02-15T00:25:15;101745.28;;;4.17;91.64
15998;BME280;8103;51.340;12.326;2023-02-15T00:27:42;101745.28;;;4.17;91.78
15998;BME280;8103;51.340;12.326;2023-02-15T00:34:05;101744.78;;;4.14;92.73
15998;BME280;8103;51.340;12.326;2023-02-15T00:36:34;101733.88;;;4.09;91.49
15998;BME280;8103;51.340;12.326;2023-02-15T00:39:01;101724.75;;;4.03;92.51
15998;BME280;8103;51.340;12.326;2023-02-15T00:41:28;101727.59;;;4.02;91.58
15998;BME280;8103;51.340;12.326;2023-02-15T00:47:36;101731.59;;;3.98;92.13
15998;BME280;8103;51.340;12.326;2023-02-15T00:50:03;101722.97;;;3.96;92.84
15998;BME280;8103;51.340;12.326;2023-02-15T00:52:31;101714.53;;;3.92;92.62
15998;BME280;8103;51.340;12.326;2023-02-15T00:54:58;101722.00;;;3.89;91.96
15998;BME280;8103;51.340;12.326;2023-02-15T00:57:25;101725.16;;;3.84;92.47
15998;BME280;8103;51.340;12.326;2023-02-15T00:59:52;101727.34;;;3.81;92.49
15998;BME280;8103;51.340;12.326;2023-02-15T01:02:18;101717.06;;;3.78;92.97
15998;BME280;8103;51.340;12.326;2023-02-15T01:04:45;101725.03;;;3.78;92.82
15998;BME280;8103;51.340;12.326;2023-02-15T01:07:12;101728.31;;;3.80;92.27
15998;BME280;8103;51.340;12.326;2023-02-15T01:09:39;101728.16;;;3.81;92.89
15998;BME280;8103;51.340;12.326;2023-02-15T01:12:06;101732.81;;;3.79;92.88
15998;BME280;8103;51.340;12.326;2023-02-15T01:14:32;101733.63;;;3.80;92.76
15998;BME280;8103;51.340;12.326;2023-02-15T01:16:59;101730.16;;;3.79;93.60
15998;BME280;8103;51.340;12.326;2023-02-15T01:19:26;101731.16;;;3.78;93.59
15998;BME280;8103;51.340;12.326;2023-02-15T01:21:53;101724.69;;;3.73;93.50
15998;BME280;8103;51.340;12.326;2023-02-15T01:24:20;101724.88;;;3.71;93.09
15998;BME280;8103;51.340;12.326;2023-02-15T01:26:46;101719.91;;;3.68;93.51
15998;BME280;8103;51.340;12.326;2023-02-15T01:29:13;101714.94;;;3.65;93.24
15998;BME280;8103;51.340;12.326;2023-02-15T01:31:40;101716.13;;;3.63;93.98
15998;BME280;8103;51.340;12.326;2023-02-15T01:34:07;101716.28;;;3.61;93.53
15998;BME280;8103;51.340;12.326;2023-02-15T01:36:34;101708.00;;;3.56;93.32
15998;BME280;8103;51.340;12.326;2023-02-15T01:39:01;101700.59;;;3.52;93.65
15998;BME280;8103;51.340;12.326;2023-02-15T01:41:28;101706.84;;;3.51;94.10
15998;BME280;8103;51.340;12.326;2023-02-15T01:43:59;101697.09;;;3.51;94.45
15998;BME280;8103;51.340;12.326;2023-02-15T01:46:38;101703.06;;;3.53;93.38
15998;BME280;8103;51.340;12.326;2023-02-15T01:49:20;101701.56;;;3.51;94.08
15998;BME280;8103;51.340;12.326;2023-02-15T01:51:50;101695.28;;;3.52;93.79
15998;BME280;8103;51.340;12.326;2023-02-15T01:54:31;101692.63;;;3.52;95.05
15998;BME280;8103;51.340;12.326;2023-02-15T01:57:05;101690.94;;;3.51;94.20
15998;BME280;8103;51.340;12.326;2023-02-15T01:59:35;101687.31;;;3.52;94.93
15998;BME280;8103;51.340;12.326;2023-02-15T02:02:05;101688.31;;;3.51;94.61
15998;BME280;8103;51.340;12.326;2023-02-15T02:04:49;101687.31;;;3.52;94.68
15998;BME280;8103;51.340;12.326;2023-02-15T02:07:21;101685.66;;;3.51;94.67
15998;BME280;8103;51.340;12.326;2023-02-15T02:09:49;101675.03;;;3.51;93.84
15998;BME280;8103;51.340;12.326;2023-02-15T02:12:18;101679.53;;;3.50;94.21
15998;BME280;8103;51.340;12.326;2023-02-15T02:14:48;101684.00;;;3.50;93.80
15998;BME280;8103;51.340;12.326;2023-02-15T02:20:57;101679.03;;;3.47;93.35
15998;BME280;8103;51.340;12.326;2023-02-15T02:26:52;101675.25;;;3.41;93.35
15998;BME280;8103;51.340;12.326;2023-02-15T02:33:21;101668.78;;;3.36;92.95
15998;BME280;8103;51.340;12.326;2023-02-15T02:36:30;101667.31;;;3.33;93.28
15998;BME280;8103;51.340;12.326;2023-02-15T02:42:01;101670.47;;;3.29;93.30
15998;BME280;8103;51.340;12.326;2023-02-15T02:44:41;101664.69;;;3.25;93.21
15998;BME280;8103;51.340;12.326;2023-02-15T02:47:22;101663.84;;;3.25;93.24
15998;BME280;8103;51.340;12.326;2023-02-15T02:50:01;101662.22;;;3.24;92.70
15998;BME280;8103;51.340;12.326;2023-02-15T02:52:47;101653.59;;;3.22;93.45
15998;BME280;8103;51.340;12.326;2023-02-15T02:55:39;101656.41;;;3.20;93.22
15998;BME280;8103;51.340;12.326;2023-02-15T02:58:31;101648.63;;;3.19;93.19
15998;BME280;8103;51.340;12.326;2023-02-15T03:01:06;101646.97;;;3.18;93.07
15998;BME280;8103;51.340;12.326;2023-02-15T03:03:44;101645.31;;;3.17;93.10
15998;BME280;8103;51.340;12.326;2023-02-15T03:06:24;101644.31;;;3.18;93.41
15998;BME280;8103;51.340;12.326;2023-02-15T03:09:03;101640.66;;;3.19;93.65
15998;BME280;8103;51.340;12.326;2023-02-15T03:11:34;101642.31;;;3.20;93.72
15998;BME280;8103;51.340;12.326;2023-02-15T03:14:01;101631.56;;;3.21;92.99
15998;BME280;8103;51.340;12.326;2023-02-15T03:16:28;101632.72;;;3.19;93.96
15998;BME280;8103;51.340;12.326;2023-02-15T03:19:12;101622.47;;;3.16;94.17
15998;BME280;8103;51.340;12.326;2023-02-15T03:21:47;101626.44;;;3.12;93.63
15998;BME280;8103;51.340;12.326;2023-02-15T03:24:36;101625.94;;;3.08;94.46
15998;BME280;8103;51.340;12.326;2023-02-15T03:27:12;101627.13;;;3.06;93.90
15998;BME280;8103;51.340;12.326;2023-02-15T03:29:49;101627.13;;;3.06;94.52
15998;BME280;8103;51.340;12.326;2023-02-15T03:32:18;101623.81;;;3.04;94.76
15998;BME280;8103;51.340;12.326;2023-02-15T03:34:45;101619.69;;;3.01;94.17
15998;BME280;8103;51.340;12.326;2023-02-15T03:37:35;101615.56;;;2.99;95.25
15998;BME280;8103;51.340;12.326;2023-02-15T03:40:18;101628.78;;;2.99;94.93
15998;BME280;8103;51.340;12.326;2023-02-15T03:43:31;101614.25;;;2.95;94.97
15998;BME280;8103;51.340;12.326;2023-02-15T03:46:13;101626.47;;;2.96;94.43
15998;BME280;8103;51.340;12.326;2023-02-15T03:48:52;101615.06;;;2.95;95.28
15998;BME280;8103;51.340;12.326;2023-02-15T03:51:25;101608.94;;;2.95;95.51
15998;BME280;8103;51.340;12.326;2023-02-15T03:54:19;101612.56;;;2.94;95.27
15998;BME280;8103;51.340;12.326;2023-02-15T03:57:12;101608.94;;;2.95;95.83
15998;BME280;8103;51.340;12.326;2023-02-15T04:00:00;101610.91;;;2.93;95.72
15998;BME280;8103;51.340;12.326;2023-02-15T04:03:04;101614.56;;;2.92;95.53
15998;BME280;8103;51.340;12.326;2023-02-15T04:05:34;101609.44;;;2.90;96.23
15998;BME280;8103;51.340;12.326;2023-02-15T04:08:01;101611.41;;;2.88;94.98
15998;BME280;8103;51.340;12.326;2023-02-15T04:10:28;101605.44;;;2.86;95.23
15998;BME280;8103;51.340;12.326;2023-02-15T04:13:13;101610.91;;;2.85;95.48
15998;BME280;8103;51.340;12.326;2023-02-15T04:15:40;101613.09;;;2.81;95.29
15998;BME280;8103;51.340;12.326;2023-02-15T04:18:26;101624.00;;;2.78;95.27
15998;BME280;8103;51.340;12.326;2023-02-15T04:21:12;101618.88;;;2.77;95.01
15998;BME280;8103;51.340;12.326;2023-02-15T04:23:57;101618.22;;;2.75;95.55
15998;BME280;8103;51.340;12.326;2023-02-15T04:26:43;101620.84;;;2.75;95.20
15998;BME280;8103;51.340;12.326;2023-02-15T04:29:09;101619.72;;;2.69;94.17
15998;BME280;8103;51.340;12.326;2023-02-15T04:31:36;101618.06;;;2.68;94.82
15998;BME280;8103;51.340;12.326;2023-02-15T04:34:03;101610.28;;;2.67;95.26
15998;BME280;8103;51.340;12.326;2023-02-15T04:36:30;101610.63;;;2.64;94.89
15998;BME280;8103;51.340;12.326;2023-02-15T04:38:57;101612.25;;;2.65;94.67
15998;BME280;8103;51.340;12.326;2023-02-15T04:41:23;101608.94;;;2.63;95.57
15998;BME280;8103;51.340;12.326;2023-02-15T04:43:50;101605.97;;;2.58;94.81
15998;BME280;8103;51.340;12.326;2023-02-15T04:46:17;101599.38;;;2.54;95.24
15998;BME280;8103;51.340;12.326;2023-02-15T04:48:43;101592.72;;;2.50;95.70
15998;BME280;8103;51.340;12.326;2023-02-15T04:51:10;101594.41;;;2.51;95.45
15998;BME280;8103;51.340;12.326;2023-02-15T04:53:37;101593.06;;;2.47;96.21
15998;BME280;8103;51.340;12.326;2023-02-15T04:56:04;101586.28;;;2.44;96.10
15998;BME280;8103;51.340;12.326;2023-02-15T04:58:31;101584.47;;;2.45;95.93
15998;BME280;8103;51.340;12.326;2023-02-15T05:00:58;101577.19;;;2.47;96.10
15998;BME280;8103;51.340;12.326;2023-02-15T05:03:25;101578.88;;;2.48;96.74
15998;BME280;8103;51.340;12.326;2023-02-15T05:05:52;101577.19;;;2.47;96.33
15998;BME280;8103;51.340;12.326;2023-02-15T05:08:19;101575.22;;;2.49;96.00
15998;BME280;8103;51.340;12.326;2023-02-15T05:10:48;101568.28;;;2.48;96.47
15998;BME280;8103;51.340;12.326;2023-02-15T05:13:15;101566.59;;;2.47;97.07
15998;BME280;8103;51.340;12.326;2023-02-15T05:15:48;101564.97;;;2.46;97.04
15998;BME280;8103;51.340;12.326;2023-02-15T05:18:19;101567.28;;;2.49;97.03
15998;BME280;8103;51.340;12.326;2023-02-15T05:20:47;101570.94;;;2.48;97.14
15998;BME280;8103;51.340;12.326;2023-02-15T05:23:14;101575.38;;;2.47;97.08
15998;BME280;8103;51.340;12.326;2023-02-15T05:25:50;101566.78;;;2.45;96.56
15998;BME280;8103;51.340;12.326;2023-02-15T05:28:37;101563.66;;;2.42;96.31
15998;BME280;8103;51.340;12.326;2023-02-15T05:31:13;101565.28;;;2.43;96.50
15998;BME280;8103;51.340;12.326;2023-02-15T05:33:41;101567.25;;;2.41;96.17
15998;BME280;8103;51.340;12.326;2023-02-15T05:36:09;101561.97;;;2.41;96.23
15998;BME280;8103;51.340;12.326;2023-02-15T05:38:37;101561.97;;;2.41;96.37
15998;BME280;8103;51.340;12.326;2023-02-15T05:41:05;101565.63;;;2.40;96.15
15998;BME280;8103;51.340;12.326;2023-02-15T05:43:33;101560.31;;;2.40;95.84
15998;BME280;8103;51.340;12.326;2023-02-15T05:46:00;101560.31;;;2.40;95.75
15998;BME280;8103;51.340;12.326;2023-02-15T05:48:28;101555.88;;;2.40;96.38
15998;BME280;8103;51.340;12.326;2023-02-15T05:51:02;101561.00;;;2.42;95.87
15998;BME280;8103;51.340;12.326;2023-02-15T05:53:31;101564.63;;;2.41;96.51
15998;BME280;8103;51.340;12.326;2023-02-15T05:55:58;101549.75;;;2.40;96.46
15998;BME280;8103;51.340;12.326;2023-02-15T05:58:33;101556.03;;;2.39;96.81
15998;BME280;8103;51.340;12.326;2023-02-15T06:01:11;101561.97;;;2.41;96.45
15998;BME280;8103;51.340;12.326;2023-02-15T06:03:39;101556.69;;;2.41;96.67
15998;BME280;8103;51.340;12.326;2023-02-15T06:06:06;101563.66;;;2.42;96.22
15998;BME280;8103;51.340;12.326;2023-02-15T06:08:35;101559.31;;;2.41;95.95
15998;BME280;8103;51.340;12.326;2023-02-15T06:11:02;101558.69;;;2.39;96.07
15998;BME280;8103;51.340;12.326;2023-02-15T06:13:30;101562.28;;;2.38;95.92
15998;BME280;8103;51.340;12.326;2023-02-15T06:15:56;101567.59;;;2.38;96.11
15998;BME280;8103;51.340;12.326;2023-02-15T06:18:24;101564.31;;;2.36;95.90
15998;BME280;8103;51.340;12.326;2023-02-15T06:20:51;101574.88;;;2.36;95.97
15998;BME280;8103;51.340;12.326;2023-02-15T06:23:17;101573.25;;;2.35;95.74
15998;BME280;8103;51.340;12.326;2023-02-15T06:25:45;101568.91;;;2.34;95.77
15998;BME280;8103;51.340;12.326;2023-02-15T06:28:13;101572.41;;;2.34;95.63
15998;BME280;8103;51.340;12.326;2023-02-15T06:30:40;101565.31;;;2.35;96.03
15998;BME280;8103;51.340;12.326;2023-02-15T06:33:07;101567.94;;;2.35;96.21
15998;BME280;8103;51.340;12.326;2023-02-15T06:35:34;101565.47;;;2.33;95.78
15998;BME280;8103;51.340;12.326;2023-02-15T06:38:00;101567.13;;;2.34;96.66
15998;BME280;8103;51.340;12.326;2023-02-15T06:40:27;101564.94;;;2.38;95.98
15998;BME280;8103;51.340;12.326;2023-02-15T06:42:54;101565.94;;;2.37;95.93
15998;BME280;8103;51.340;12.326;2023-02-15T06:45:21;101567.59;;;2.38;95.98
15998;BME280;8103;51.340;12.326;2023-02-15T06:47:47;101565.94;;;2.37;96.62
15998;BME280;8103;51.340;12.326;2023-02-15T06:50:14;101571.06;;;2.38;96.33
15998;BME280;8103;51.340;12.326;2023-02-15T06:52:41;101564.94;;;2.38;96.48
15998;BME280;8103;51.340;12.326;2023-02-15T06:55:08;101571.06;;;2.38;95.93
15998;BME280;8103;51.340;12.326;2023-02-15T06:57:34;101563.13;;;2.38;96.53
15998;BME280;8103;51.340;12.326;2023-02-15T07:00:02;101569.25;;;2.39;95.83
15998;BME280;8103;51.340;12.326;2023-02-15T07:02:31;101562.28;;;2.38;96.30
15998;BME280;8103;51.340;12.326;2023-02-15T07:04:58;101572.56;;;2.41;95.98
15998;BME280;8103;51.340;12.326;2023-02-15T07:07:25;101563.81;;;2.40;96.24
15998;BME280;8103;51.340;12.326;2023-02-15T07:09:52;101570.59;;;2.43;96.25
15998;BME280;8103;51.340;12.326;2023-02-15T07:12:18;101562.47;;;2.44;95.98
15998;BME280;8103;51.340;12.326;2023-02-15T07:15:04;101558.50;;;2.48;95.89
15998;BME280;8103;51.340;12.326;2023-02-15T07:17:33;101560.97;;;2.50;95.43
15998;BME280;8103;51.340;12.326;2023-02-15T07:20:26;101555.34;;;2.53;95.82
15998;BME280;8103;51.340;12.326;2023-02-15T07:22:53;101546.44;;;2.54;96.10
15998;BME280;8103;51.340;12.326;2023-02-15T07:25:19;101544.44;;;2.56;95.82
15998;BME280;8103;51.340;12.326;2023-02-15T07:27:46;101542.78;;;2.55;95.51
15998;BME280;8103;51.340;12.326;2023-02-15T07:30:16;101543.63;;;2.55;95.19
15998;BME280;8103;51.340;12.326;2023-02-15T07:32:44;101539.16;;;2.56;95.40
15998;BME280;8103;51.340;12.326;2023-02-15T07:35:32;101538.47;;;2.62;95.69
15998;BME280;8103;51.340;12.326;2023-02-15T07:38:00;101539.78;;;2.66;94.97
15998;BME280;8103;51.340;12.326;2023-02-15T07:40:27;101528.19;;;2.75;95.03
15998;BME280;8103;51.340;12.326;2023-02-15T07:42:58;101532.81;;;2.81;95.07
15998;BME280;8103;51.340;12.326;2023-02-15T07:45:25;101531.66;;;2.91;95.51
15998;BME280;8103;51.340;12.326;2023-02-15T07:47:52;101531.13;;;2.96;95.34
15998;BME280;8103;51.340;12.326;2023-02-15T07:50:19;101532.28;;;3.01;95.09
15998;BME280;8103;51.340;12.326;2023-02-15T07:52:46;101521.84;;;3.08;94.95
15998;BME280;8103;51.340;12.326;2023-02-15T07:55:13;101517.19;;;3.10;95.20
15998;BME280;8103;51.340;12.326;2023-02-15T07:57:44;101523.44;;;3.17;94.55
15998;BME280;8103;51.340;12.326;2023-02-15T08:00:14;101522.75;;;3.23;93.61
15998;BME280;8103;51.340;12.326;2023-02-15T08:02:48;101518.44;;;3.30;93.88
15998;BME280;8103;51.340;12.326;2023-02-15T08:05:18;101518.72;;;3.43;93.57
15998;BME280;8103;51.340;12.326;2023-02-15T08:07:45;101515.66;;;3.54;93.45
15998;BME280;8103;51.340;12.326;2023-02-15T08:10:12;101519.25;;;3.61;92.39
15998;BME280;8103;51.340;12.326;2023-02-15T08:12:59;101518.97;;;3.56;91.89
15998;BME280;8103;51.340;12.326;2023-02-15T08:15:26;101506.84;;;3.61;92.19
15998;BME280;8103;51.340;12.326;2023-02-15T08:17:55;101513.91;;;3.69;91.28
15998;BME280;8103;51.340;12.326;2023-02-15T08:20:22;101505.91;;;3.77;91.08
15998;BME280;8103;51.340;12.326;2023-02-15T08:22:50;101504.56;;;3.81;90.75
15998;BME280;8103;51.340;12.326;2023-02-15T08:25:17;101498.56;;;3.87;90.11
15998;BME280;8103;51.340;12.326;2023-02-15T08:27:43;101504.97;;;4.15;89.96
15998;BME280;8103;51.340;12.326;2023-02-15T08:30:11;101501.28;;;4.38;88.63
15998;BME280;8103;51.340;12.326;2023-02-15T08:32:40;101500.03;;;4.49;87.71
15998;BME280;8103;51.340;12.326;2023-02-15T08:35:08;101493.72;;;4.50;87.61
15998;BME280;8103;51.340;12.326;2023-02-15T08:37:34;101495.00;;;4.54;86.51
15998;BME280;8103;51.340;12.326;2023-02-15T08:40:01;101492.91;;;4.50;86.65
15998;BME280;8103;51.340;12.326;2023-02-15T08:42:29;101489.53;;;4.56;87.02
15998;BME280;8103;51.340;12.326;2023-02-15T08:44:57;101483.72;;;4.52;86.55
15998;BME280;8103;51.340;12.326;2023-02-15T08:47:24;101482.75;;;4.53;86.96
15998;BME280;8103;51.340;12.326;2023-02-15T08:49:51;101481.00;;;4.60;86.78
15998;BME280;8103;51.340;12.326;2023-02-15T08:52:17;101482.28;;;4.64;86.43
15998;BME280;8103;51.340;12.326;2023-02-15T08:54:47;101478.06;;;4.70;86.08
15998;BME280;8103;51.340;12.326;2023-02-15T08:57:14;101477.53;;;4.74;86.33
15998;BME280;8103;51.340;12.326;2023-02-15T08:59:41;101476.81;;;4.80;85.75
15998;BME280;8103;51.340;12.326;2023-02-15T09:02:10;101484.94;;;4.93;84.95
15998;BME280;8103;51.340;12.326;2023-02-15T09:04:37;101481.91;;;5.11;84.60
15998;BME280;8103;51.340;12.326;2023-02-15T09:11:16;101477.31;;;5.69;81.78
15998;BME280;8103;51.340;12.326;2023-02-15T09:13:54;101478.50;;;6.02;81.33
15998;BME280;8103;51.340;12.326;2023-02-15T09:16:28;101480.06;;;7.07;82.25
15998;BME280;8103;51.340;12.326;2023-02-15T09:18:56;101473.75;;;9.56;73.51
15998;BME280;8103;51.340;12.326;2023-02-15T09:21:28;101458.00;;;12.20;63.21
15998;BME280;8103;51.340;12.326;2023-02-15T09:23:58;101456.53;;;13.89;52.88
15998;BME280;8103;51.340;12.326;2023-02-15T09:26:32;101449.84;;;14.90;49.43
15998;BME280;8103;51.340;12.326;2023-02-15T09:29:01;101451.31;;;16.21;45.51
15998;BME280;8103;51.340;12.326;2023-02-15T09:31:33;101449.63;;;16.83;43.08
15998;BME280;8103;51.340;12.326;2023-02-15T09:34:01;101451.66;;;17.69;40.63
15998;BME280;8103;51.340;12.326;2023-02-15T09:36:38;101448.97;;;17.84;39.55
15998;BME280;8103;51.340;12.326;2023-02-15T09:42:19;101440.63;;;19.40;36.61
15998;BME280;8103;51.340;12.326;2023-02-15T09:45:26;101451.16;;;20.00;34.33
15998;BME280;8103;51.340;12.326;2023-02-15T09:51:22;101448.94;;;21.40;32.63
15998;BME280;8103;51.340;12.326;2023-02-15T09:54:21;101444.81;;;21.84;31.56
15998;BME280;8103;51.340;12.326;2023-02-15T09:56:58;101449.06;;;22.27;31.20
15998;BME280;8103;51.340;12.326;2023-02-15T09:59:44;101445.34;;;22.82;29.42
15998;BME280;8103;51.340;12.326;2023-02-15T10:03:04;101454.66;;;23.63;29.20
15998;BME280;8103;51.340;12.326;2023-02-15T10:05:51;101454.56;;;25.09;27.01
15998;BME280;8103;51.340;12.326;2023-02-15T10:18:00;101441.56;;;25.31;25.88
15998;BME280;8103;51.340;12.326;2023-02-15T10:20:56;101434.91;;;25.24;25.73
15998;BME280;8103;51.340;12.326;2023-02-15T10:24:05;101434.69;;;25.76;25.71
15998;BME280;8103;51.340;12.326;2023-02-15T10:26:44;101433.69;;;25.47;25.26
15998;BME280;8103;51.340;12.326;2023-02-15T10:29:37;101428.19;;;25.64;25.30
15998;BME280;8103;51.340;12.326;2023-02-15T10:32:31;101425.31;;;25.77;25.14
15998;BME280;8103;51.340;12.326;2023-02-15T10:35:24;101421.84;;;26.48;24.01
15998;BME280;8103;51.340;12.326;2023-02-15T10:41:13;101412.25;;;27.59;23.24
15998;BME280;8103;51.340;12.326;2023-02-15T10:43:49;101408.31;;;27.89;22.37
15998;BME280;8103;51.340;12.326;2023-02-15T10:46:33;101407.28;;;27.73;22.71
15998;BME280;8103;51.340;12.326;2023-02-15T10:49:33;101402.56;;;27.94;22.66
15998;BME280;8103;51.340;12.326;2023-02-15T10:52:29;101394.72;;;29.45;21.22
15998;BME280;8103;51.340;12.326;2023-02-15T10:58:42;101393.84;;;30.36;20.53
15998;BME280;8103;51.340;12.326;2023-02-15T11:06:50;101385.91;;;32.42;18.08
15998;BME280;8103;51.340;12.326;2023-02-15T11:09:24;101386.47;;;33.81;17.75
15998;BME280;8103;51.340;12.326;2023-02-15T11:11:57;101384.69;;;33.99;17.13
15998;BME280;8103;51.340;12.326;2023-02-15T11:15:10;101385.25;;;33.49;16.98
15998;BME280;8103;51.340;12.326;2023-02-15T11:17:55;101382.34;;;33.42;17.39
15998;BME280;8103;51.340;12.326;2023-02-15T11:23:16;101372.34;;;32.86;17.53
15998;BME280;8103;51.340;12.326;2023-02-15T11:25:56;101376.41;;;32.69;17.85
15998;BME280;8103;51.340;12.326;2023-02-15T11:28:43;101368.16;;;32.95;17.93
15998;BME280;8103;51.340;12.326;2023-02-15T11:31:23;101365.97;;;32.36;18.10
15998;BME280;8103;51.340;12.326;2023-02-15T11:34:10;101364.75;;;33.64;17.21
15998;BME280;8103;51.340;12.326;2023-02-15T11:36:44;101360.69;;;35.19;16.31
15998;BME280;8103;51.340;12.326;2023-02-15T11:39:17;101357.13;;;34.68;16.20
15998;BME280;8103;51.340;12.326;2023-02-15T11:41:49;101357.84;;;34.61;15.85
15998;BME280;8103;51.340;12.326;2023-02-15T11:44:35;101356.66;;;32.74;17.46
15998;BME280;8103;51.340;12.326;2023-02-15T11:47:10;101355.19;;;28.81;20.70
15998;BME280;8103;51.340;12.326;2023-02-15T11:49:38;101351.84;;;24.62;24.72
15998;BME280;8103;51.340;12.326;2023-02-15T11:52:11;101359.25;;;20.91;30.47
15998;BME280;8103;51.340;12.326;2023-02-15T11:54:49;101352.09;;;18.05;35.38
15998;BME280;8103;51.340;12.326;2023-02-15T11:57:26;101356.72;;;16.87;37.74
15998;BME280;8103;51.340;12.326;2023-02-15T12:00:28;101350.03;;;15.49;41.79
15998;BME280;8103;51.340;12.326;2023-02-15T12:02:58;101352.41;;;14.75;44.01
15998;BME280;8103;51.340;12.326;2023-02-15T12:05:25;101354.25;;;14.32;45.25
15998;BME280;8103;51.340;12.326;2023-02-15T12:08:01;101347.56;;;14.01;45.72
15998;BME280;8103;51.340;12.326;2023-02-15T12:10:46;101348.09;;;13.54;48.33
15998;BME280;8103;51.340;12.326;2023-02-15T12:13:19;101337.38;;;13.14;49.71
15998;BME280;8103;51.340;12.326;2023-02-15T12:15:56;101351.72;;;13.03;50.18
15998;BME280;8103;51.340;12.326;2023-02-15T12:18:38;101336.25;;;13.10;49.93
15998;BME280;8103;51.340;12.326;2023-02-15T12:21:11;101334.75;;;13.03;49.77
15998;BME280;8103;51.340;12.326;2023-02-15T12:23:47;101325.34;;;13.17;49.87
15998;BME280;8103;51.340;12.326;2023-02-15T12:26:31;101325.06;;;13.46;48.80
15998;BME280;8103;51.340;12.326;2023-02-15T12:29:05;101321.72;;;14.05;49.86
15998;BME280;8103;51.340;12.326;2023-02-15T12:31:45;101315.97;;;16.16;45.21
15998;BME280;8103;51.340;12.326;2023-02-15T12:34:32;101312.16;;;19.48;37.99
15998;BME280;8103;51.340;12.326;2023-02-15T12:37:15;101308.22;;;23.91;31.31
15998;BME280;8103;51.340;12.326;2023-02-15T12:39:57;101306.53;;;27.75;25.78
15998;BME280;8103;51.340;12.326;2023-02-15T12:42:26;101304.94;;;30.25;21.93
15998;BME280;8103;51.340;12.326;2023-02-15T12:45:19;101305.72;;;31.99;20.52
15998;BME280;8103;51.340;12.326;2023-02-15T12:48:07;101297.88;;;33.57;18.99
15998;BME280;8103;51.340;12.326;2023-02-15T12:50:35;101290.75;;;35.73;16.86
15998;BME280;8103;51.340;12.326;2023-02-15T12:53:33;101296.44;;;36.82;15.63
15998;BME280;8103;51.340;12.326;2023-02-15T12:56:07;101290.81;;;36.92;14.81
15998;BME280;8103;51.340;12.326;2023-02-15T12:58:39;101288.44;;;36.70;14.91
15998;BME280;8103;51.340;12.326;2023-02-15T13:01:12;101284.03;;;36.93;14.79
15998;BME280;8103;51.340;12.326;2023-02-15T13:04:03;101271.66;;;36.77;14.92
15998;BME280;8103;51.340;12.326;2023-02-15T13:06:34;101278.09;;;36.28;14.02
15998;BME280;8103;51.340;12.326;2023-02-15T13:12:24;101272.47;;;36.77;13.91
15998;BME280;8103;51.340;12.326;2023-02-15T13:14:54;101270.09;;;36.16;14.20
15998;BME280;8103;51.340;12.326;2023-02-15T13:17:30;101262.88;;;35.94;14.48
15998;BME280;8103;51.340;12.326;2023-02-15T13:20:06;101258.63;;;35.18;13.90
15998;BME280;8103;51.340;12.326;2023-02-15T13:22:46;101254.19;;;34.41;14.58
15998;BME280;8103;51.340;12.326;2023-02-15T13:25:22;101256.41;;;34.29;15.64
15998;BME280;8103;51.340;12.326;2023-02-15T13:27:55;101248.47;;;35.71;14.44
15998;BME280;8103;51.340;12.326;2023-02-15T13:30:32;101247.44;;;35.14;14.86
15998;BME280;8103;51.340;12.326;2023-02-15T13:33:14;101245.31;;;34.32;15.18
15998;BME280;8103;51.340;12.326;2023-02-15T13:38:57;101237.00;;;33.92;15.92
15998;BME280;8103;51.340;12.326;2023-02-15T13:51:57;101235.75;;;33.86;15.80
15998;BME280;8103;51.340;12.326;2023-02-15T13:55:14;101240.50;;;33.86;15.38
15998;BME280;8103;51.340;12.326;2023-02-15T14:00:58;101225.19;;;32.74;16.76
15998;BME280;8103;51.340;12.326;2023-02-15T14:04:01;101226.94;;;33.11;16.40
15998;BME280;8103;51.340;12.326;2023-02-15T14:06:49;101233.91;;;32.98;16.48
15998;BME280;8103;51.340;12.326;2023-02-15T14:09:47;101231.31;;;33.42;16.03
15998;BME280;8103;51.340;12.326;2023-02-15T14:12:52;101233.66;;;33.76;15.79
15998;BME280;8103;51.340;12.326;2023-02-15T14:15:47;101222.97;;;33.42;16.27
15998;BME280;8103;51.340;12.326;2023-02-15T14:18:34;101218.59;;;33.11;16.25
15998;BME280;8103;51.340;12.326;2023-02-15T14:21:24;101225.09;;;33.55;15.71
15998;BME280;8103;51.340;12.326;2023-02-15T14:24:33;101220.50;;;33.73;15.78
15998;BME280;8103;51.340;12.326;2023-02-15T14:27:39;101210.25;;;33.44;15.23
15998;BME280;8103;51.340;12.326;2023-02-15T14:30:20;101217.41;;;33.12;15.65
15998;BME280;8103;51.340;12.326;2023-02-15T14:35:30;101205.94;;;33.17;16.31
15998;BME280;8103;51.340;12.326;2023-02-15T14:38:19;101211.50;;;33.17;15.81
15998;BME280;8103;51.340;12.326;2023-02-15T14:40:59;101207.28;;;32.97;16.41
15998;BME280;8103;51.340;12.326;2023-02-15T14:49:23;101216.38;;;32.16;16.01
15998;BME280;8103;51.340;12.326;2023-02-15T14:51:56;101210.81;;;31.29;16.69
15998;BME280;8103;51.340;12.326;2023-02-15T14:59:50;101200.84;;;28.43;18.81
15998;BME280;8103;51.340;12.326;2023-02-15T15:02:48;101200.31;;;28.02;19.81
15998;BME280;8103;51.340;12.326;2023-02-15T15:05:34;101193.38;;;26.36;20.80
15998;BME280;8103;51.340;12.326;2023-02-15T15:08:04;101189.13;;;24.53;22.00
15998;BME280;8103;51.340;12.326;2023-02-15T15:10:41;101188.94;;;22.96;24.39
15998;BME280;8103;51.340;12.326;2023-02-15T15:13:36;101187.34;;;21.33;26.41